Time;durP1;ratioP1;P1;durP2;ratioP2;P2;SDS_P1;SDS_P2;PMS_P1;PMS_P2;Temp;Humidity;BMP_temperature;BMP_pressure;BME280_temperature;BME280_humidity;BME280_pressure;Samples;Min_cycle;Max_cycle;Signal;HPM_P1;HPM_P2
2023/08/01 00:00:33;;;;;;;16.98;7.55;;;16.60;99.90;;;;;;5035592;28;20483;-68
2023/08/01 00:02:58;;;;;;;11.30;6.90;;;16.60;99.90;;;;;;5036666;28;20056;-69
2023/08/01 00:05:24;;;;;;;11.85;6.75;;;16.60;99.90;;;;;;5043512;28;20037;-68
2023/08/01 00:07:50;;;;;;;15.38;7.07;;;16.60;99.90;;;;;;5042064;28;20045;-69
2023/08/01 00:10:18;;;;;;;11.30;7.00;;;16.60;99.90;;;;;;5044246;28;20641;-68
2023/08/01 00:12:44;;;;;;;15.85;7.18;;;16.60;99.90;;;;;;5048565;28;20048;-68
2023/08/01 00:15:10;;;;;;;12.48;6.75;;;16.60;99.90;;;;;;5043023;28;20068;-68
2023/08/01 00:17:36;;;;;;;15.48;7.07;;;16.60;99.90;;;;;;5038379;28;20048;-68
2023/08/01 00:20:03;;;;;;;12.90;6.82;;;16.60;99.90;;;;;;5047167;28;20810;-68
2023/08/01 00:22:29;;;;;;;11.85;7.05;;;16.60;99.90;;;;;;5042330;28;20045;-68
2023/08/01 00:24:54;;;;;;;12.55;7.60;;;16.60;99.90;;;;;;5043039;28;20045;-68
2023/08/01 00:27:20;;;;;;;14.25;7.80;;;16.60;99.90;;;;;;5042506;28;20521;-69
2023/08/01 00:29:46;;;;;;;14.43;7.93;;;16.60;99.90;;;;;;5041367;28;20039;-69
2023/08/01 00:32:11;;;;;;;18.60;7.97;;;16.60;99.90;;;;;;5043015;28;20068;-69
2023/08/01 00:34:37;;;;;;;12.40;8.15;;;16.60;99.90;;;;;;5041169;28;20056;-65
2023/08/01 00:37:03;;;;;;;14.13;7.63;;;16.50;99.90;;;;;;5047901;28;20033;-68
2023/08/01 00:39:28;;;;;;;12.85;7.05;;;16.50;99.90;;;;;;5041977;28;20076;-69
2023/08/01 00:41:54;;;;;;;11.15;6.93;;;16.50;99.90;;;;;;5042660;28;20044;-69
2023/08/01 00:44:20;;;;;;;13.32;7.03;;;16.50;99.90;;;;;;5039677;28;20037;-70
2023/08/01 00:46:46;;;;;;;13.35;6.20;;;16.40;99.90;;;;;;5042853;28;20028;-67
2023/08/01 00:49:12;;;;;;;12.10;6.65;;;16.40;99.90;;;;;;5041649;28;20041;-67
2023/08/01 00:51:38;;;;;;;12.45;7.10;;;16.40;99.90;;;;;;5038797;28;20059;-71
2023/08/01 00:54:04;;;;;;;12.05;6.68;;;16.40;99.90;;;;;;5037443;28;20040;-67
2023/08/01 00:56:29;;;;;;;12.43;7.20;;;16.40;99.90;;;;;;5042891;28;20491;-68
2023/08/01 00:58:55;;;;;;;13.80;6.82;;;16.40;99.90;;;;;;5042383;28;20448;-68
2023/08/01 01:01:21;;;;;;;13.63;7.03;;;16.40;99.90;;;;;;5039728;28;20577;-69
2023/08/01 01:03:47;;;;;;;16.27;7.35;;;16.40;99.90;;;;;;5041157;28;20195;-68
2023/08/01 01:06:22;;;;;;;13.70;6.88;;;16.40;99.90;;;;;;5043191;28;20045;-68
2023/08/01 01:08:48;;;;;;;13.88;6.50;;;16.40;99.90;;;;;;5039081;28;20110;-68
2023/08/01 01:11:13;;;;;;;9.75;6.72;;;16.40;99.90;;;;;;5042452;28;20033;-69
2023/08/01 01:13:39;;;;;;;12.45;6.57;;;16.40;99.90;;;;;;5041639;28;20467;-69
2023/08/01 01:16:05;;;;;;;14.88;6.13;;;16.40;99.90;;;;;;5040539;28;20116;-69
2023/08/01 01:18:31;;;;;;;14.20;7.47;;;16.40;99.90;;;;;;5041865;28;20040;-69
2023/08/01 01:20:56;;;;;;;14.55;6.68;;;16.40;99.90;;;;;;5041371;28;20049;-69
2023/08/01 01:23:23;;;;;;;17.00;7.07;;;16.40;99.90;;;;;;5048535;28;20056;-69
2023/08/01 01:25:51;;;;;;;12.38;6.70;;;16.40;99.90;;;;;;5039077;28;20040;-69
2023/08/01 01:28:18;;;;;;;14.18;7.20;;;16.40;99.90;;;;;;5043871;28;20048;-69
2023/08/01 01:30:45;;;;;;;11.32;7.10;;;16.30;99.90;;;;;;5033009;28;20048;-68
2023/08/01 01:33:11;;;;;;;15.27;7.63;;;16.40;99.90;;;;;;5043125;28;20132;-69
2023/08/01 01:35:37;;;;;;;13.45;7.60;;;16.40;99.90;;;;;;5039269;28;20049;-69
2023/08/01 01:38:03;;;;;;;17.70;7.43;;;16.40;99.90;;;;;;5048150;22;20041;-69
2023/08/01 01:40:33;;;;;;;14.35;7.45;;;16.40;99.90;;;;;;5037810;28;20542;-69
2023/08/01 01:43:00;;;;;;;12.02;7.63;;;16.40;99.90;;;;;;5052526;28;20083;-69
2023/08/01 01:45:26;;;;;;;12.23;7.55;;;16.30;99.90;;;;;;5051748;28;20502;-67
2023/08/01 01:47:52;;;;;;;13.45;7.47;;;16.30;99.90;;;;;;5021924;28;20041;-71
2023/08/01 01:50:18;;;;;;;16.33;7.93;;;16.30;99.90;;;;;;5021601;28;20060;-68
2023/08/01 01:52:44;;;;;;;18.80;7.95;;;16.30;99.90;;;;;;5035114;28;20045;-68
2023/08/01 01:55:09;;;;;;;17.25;8.07;;;16.30;99.90;;;;;;5026626;28;20040;-68
2023/08/01 01:57:36;;;;;;;11.82;7.05;;;16.30;99.90;;;;;;5022333;28;20037;-68
2023/08/01 02:00:03;;;;;;;18.92;7.63;;;16.20;99.90;;;;;;5026013;28;20036;-68
2023/08/01 02:02:29;;;;;;;16.15;7.40;;;16.20;99.90;;;;;;5021683;28;20051;-68
2023/08/01 02:04:55;;;;;;;15.85;7.93;;;16.10;99.90;;;;;;5021404;28;20037;-68
2023/08/01 02:07:20;;;;;;;17.60;8.05;;;16.10;99.90;;;;;;5021755;28;20042;-68
2023/08/01 02:09:46;;;;;;;14.18;7.43;;;16.00;99.90;;;;;;5025646;28;20041;-68
2023/08/01 02:12:14;;;;;;;14.60;7.55;;;16.00;99.90;;;;;;5026115;28;20034;-68
2023/08/01 02:14:41;;;;;;;11.82;7.18;;;15.90;99.90;;;;;;5025815;28;20041;-68
2023/08/01 02:17:07;;;;;;;11.52;7.28;;;15.80;99.90;;;;;;5029317;28;20029;-68
2023/08/01 02:19:33;;;;;;;15.43;7.32;;;15.70;99.90;;;;;;5028926;28;20736;-68
2023/08/01 02:21:59;;;;;;;13.45;7.10;;;15.70;99.90;;;;;;5022047;28;20495;-68
2023/08/01 02:24:24;;;;;;;12.60;7.05;;;15.70;99.90;;;;;;5022119;28;20052;-68
2023/08/01 02:26:50;;;;;;;13.13;6.90;;;15.60;99.90;;;;;;5019901;28;20041;-68
2023/08/01 02:29:16;;;;;;;14.95;6.95;;;15.60;99.90;;;;;;5026330;28;20136;-68
2023/08/01 02:31:42;;;;;;;10.77;6.40;;;15.60;99.90;;;;;;5022044;28;20113;-68
2023/08/01 02:34:08;;;;;;;13.77;6.60;;;15.60;99.90;;;;;;5029747;28;20619;-68
2023/08/01 02:36:33;;;;;;;14.02;6.55;;;15.70;99.90;;;;;;5026930;28;20040;-68
2023/08/01 02:38:59;;;;;;;11.50;6.55;;;15.70;99.90;;;;;;5024299;28;20036;-68
2023/08/01 02:41:25;;;;;;;13.20;6.90;;;15.70;99.90;;;;;;5025668;28;20550;-69
2023/08/01 02:43:50;;;;;;;14.07;6.38;;;15.70;99.90;;;;;;5019884;28;20052;-68
2023/08/01 02:46:16;;;;;;;14.43;6.47;;;15.70;99.90;;;;;;5027922;28;20047;-69
2023/08/01 02:48:41;;;;;;;11.13;6.30;;;15.80;99.90;;;;;;5020480;28;20034;-68
2023/08/01 02:51:09;;;;;;;13.85;5.93;;;15.80;99.90;;;;;;5036755;28;20606;-69
2023/08/01 02:53:35;;;;;;;13.38;6.22;;;15.70;99.90;;;;;;5021797;28;20055;-69
2023/08/01 02:56:01;;;;;;;13.10;5.95;;;15.70;99.90;;;;;;5022003;28;20041;-69
2023/08/01 02:58:27;;;;;;;13.02;6.03;;;15.60;99.90;;;;;;5020459;28;20036;-68
2023/08/01 03:00:53;;;;;;;12.75;5.95;;;15.60;99.90;;;;;;5025216;28;20052;-69
2023/08/01 03:03:18;;;;;;;20.42;6.18;;;15.60;99.90;;;;;;5023505;28;20041;-69
2023/08/01 03:05:44;;;;;;;12.90;5.63;;;15.60;99.90;;;;;;5024713;28;20041;-68
2023/08/01 03:08:09;;;;;;;16.05;5.85;;;15.60;99.90;;;;;;5020478;28;20260;-68
2023/08/01 03:10:35;;;;;;;12.25;5.70;;;15.60;99.90;;;;;;5022606;28;20037;-69
2023/08/01 03:13:01;;;;;;;12.95;5.97;;;15.60;99.90;;;;;;5021729;28;20111;-67
2023/08/01 03:15:27;;;;;;;12.70;5.75;;;15.60;99.90;;;;;;5025716;28;20772;-68
2023/08/01 03:17:53;;;;;;;16.67;6.32;;;15.50;99.90;;;;;;5024245;28;20045;-67
2023/08/01 03:20:18;;;;;;;15.52;5.90;;;15.50;99.90;;;;;;5033962;28;20506;-67
2023/08/01 03:22:44;;;;;;;11.23;5.75;;;15.50;99.90;;;;;;5033218;28;20060;-69
2023/08/01 03:25:10;;;;;;;11.77;5.50;;;15.40;99.90;;;;;;5036211;28;20041;-69
2023/08/01 03:27:36;;;;;;;15.63;5.68;;;15.40;99.90;;;;;;5032838;28;20040;-68
2023/08/01 03:30:04;;;;;;;16.67;5.82;;;15.40;99.90;;;;;;5025624;28;20041;-69
2023/08/01 03:32:30;;;;;;;12.50;5.53;;;15.40;99.90;;;;;;5030448;28;20163;-68
2023/08/01 03:34:55;;;;;;;13.32;5.55;;;15.30;99.90;;;;;;5034381;28;20041;-68
2023/08/01 03:37:21;;;;;;;11.93;6.00;;;15.30;99.90;;;;;;5034568;28;20121;-68
2023/08/01 03:39:46;;;;;;;16.98;5.70;;;15.30;99.90;;;;;;5026266;28;20033;-68
2023/08/01 03:42:12;;;;;;;11.20;5.53;;;15.30;99.90;;;;;;5037668;28;20466;-66
2023/08/01 03:44:37;;;;;;;14.18;5.70;;;15.30;99.90;;;;;;5025865;28;20049;-69
2023/08/01 03:47:03;;;;;;;12.18;5.30;;;15.30;99.90;;;;;;5023282;28;20045;-68
2023/08/01 03:49:29;;;;;;;18.90;5.55;;;15.40;99.90;;;;;;5026355;28;20041;-69
2023/08/01 03:51:55;;;;;;;14.18;5.95;;;15.40;99.90;;;;;;5042005;28;20433;-69
2023/08/01 03:54:20;;;;;;;13.40;5.15;;;15.40;99.90;;;;;;5051584;28;20094;-69
2023/08/01 03:56:46;;;;;;;13.93;6.03;;;15.40;99.90;;;;;;5043540;28;20120;-68
2023/08/01 03:59:13;;;;;;;15.30;5.97;;;15.40;99.90;;;;;;5042395;28;20507;-69
2023/08/01 04:01:38;;;;;;;16.92;5.65;;;15.40;99.90;;;;;;5030508;28;20045;-69
2023/08/01 04:04:04;;;;;;;16.73;6.10;;;15.50;99.90;;;;;;5032637;28;20037;-70
2023/08/01 04:06:30;;;;;;;15.68;6.00;;;15.50;99.90;;;;;;5028349;28;20380;-68
2023/08/01 04:08:56;;;;;;;14.63;6.07;;;15.50;99.90;;;;;;5045153;28;20037;-68
2023/08/01 04:11:22;;;;;;;15.98;6.60;;;15.50;99.90;;;;;;5048687;28;20043;-69
2023/08/01 04:13:48;;;;;;;13.65;5.53;;;15.50;99.90;;;;;;5029825;28;20041;-68
2023/08/01 04:16:14;;;;;;;9.55;4.97;;;15.50;99.90;;;;;;5042105;28;20071;-68
2023/08/01 04:18:39;;;;;;;8.43;4.25;;;15.50;99.90;;;;;;5042259;28;20048;-68
2023/08/01 04:21:06;;;;;;;6.63;3.47;;;15.40;99.90;;;;;;5046565;28;20044;-68
2023/08/01 04:23:32;;;;;;;6.13;2.60;;;15.40;99.90;;;;;;5032833;28;20442;-68
2023/08/01 04:25:59;;;;;;;5.03;2.63;;;15.30;99.90;;;;;;5035100;28;20492;-67
2023/08/01 04:28:25;;;;;;;6.22;2.85;;;15.30;99.90;;;;;;5042381;28;20037;-68
2023/08/01 04:30:51;;;;;;;5.80;2.47;;;15.20;99.90;;;;;;5035170;28;20410;-68
2023/08/01 04:33:17;;;;;;;10.10;3.97;;;15.20;99.90;;;;;;5037552;28;20034;-68
2023/08/01 04:35:43;;;;;;;8.23;4.07;;;15.20;99.90;;;;;;5040931;28;20086;-68
2023/08/01 04:38:08;;;;;;;8.75;4.10;;;15.30;99.90;;;;;;5033118;28;20099;-68
2023/08/01 04:40:34;;;;;;;6.10;3.55;;;15.30;99.90;;;;;;5033951;28;20052;-68
2023/08/01 04:43:03;;;;;;;6.78;3.72;;;15.30;99.90;;;;;;5037533;28;20037;-68
2023/08/01 04:45:28;;;;;;;8.48;3.30;;;15.30;99.90;;;;;;5043687;28;20048;-68
2023/08/01 04:47:54;;;;;;;6.15;2.90;;;15.30;99.90;;;;;;5040646;28;20094;-68
2023/08/01 04:50:20;;;;;;;5.60;2.70;;;15.30;99.90;;;;;;5043767;28;20041;-65
2023/08/01 04:52:45;;;;;;;6.90;3.10;;;15.30;99.90;;;;;;5037746;28;20041;-66
2023/08/01 04:55:11;;;;;;;9.30;2.70;;;15.30;99.90;;;;;;5043865;28;20447;-66
2023/08/01 04:57:37;;;;;;;8.65;2.90;;;15.30;99.90;;;;;;5030053;28;20182;-70
2023/08/01 05:00:03;;;;;;;7.15;3.08;;;15.30;99.90;;;;;;5042349;28;20036;-66
2023/08/01 05:02:29;;;;;;;5.82;3.00;;;15.40;99.90;;;;;;5037510;28;20056;-66
2023/08/01 05:04:55;;;;;;;6.72;2.88;;;15.40;99.90;;;;;;5031039;28;20041;-70
2023/08/01 05:07:20;;;;;;;7.85;2.80;;;15.50;99.90;;;;;;5034512;28;20411;-66
2023/08/01 05:09:46;;;;;;;6.93;2.80;;;15.60;99.90;;;;;;5033606;28;20148;-68
2023/08/01 05:12:11;;;;;;;4.80;2.95;;;15.70;99.90;;;;;;5045460;28;20040;-68
2023/08/01 05:14:37;;;;;;;5.53;2.92;;;15.70;99.90;;;;;;5038777;28;20056;-67
2023/08/01 05:17:03;;;;;;;6.43;2.90;;;15.80;99.90;;;;;;5031380;28;20053;-66
2023/08/01 05:19:29;;;;;;;7.57;2.90;;;15.90;99.90;;;;;;5040966;28;20076;-66
2023/08/01 05:21:55;;;;;;;5.50;3.10;;;15.80;99.90;;;;;;5040965;28;20164;-68
2023/08/01 05:24:21;;;;;;;7.03;3.08;;;15.80;99.90;;;;;;5031468;28;20438;-68
2023/08/01 05:26:47;;;;;;;5.50;3.20;;;15.70;99.90;;;;;;5032257;28;20037;-68
2023/08/01 05:29:12;;;;;;;5.65;3.00;;;15.70;99.90;;;;;;5024150;28;20056;-65
2023/08/01 05:31:38;;;;;;;6.82;2.92;;;15.70;99.90;;;;;;5041219;28;20482;-68
2023/08/01 05:34:04;;;;;;;6.00;3.13;;;15.70;99.90;;;;;;5045651;28;20109;-67
2023/08/01 05:36:29;;;;;;;5.00;2.90;;;15.70;99.90;;;;;;5025597;28;20096;-69
2023/08/01 05:38:56;;;;;;;5.53;2.72;;;15.70;99.90;;;;;;5035037;28;20127;-68
2023/08/01 05:41:21;;;;;;;4.45;2.97;;;15.60;99.90;;;;;;5032312;28;20458;-69
2023/08/01 05:43:48;;;;;;;6.45;3.05;;;15.60;99.90;;;;;;5043672;28;20049;-66
2023/08/01 05:46:14;;;;;;;9.50;3.70;;;15.60;99.90;;;;;;5021763;28;20041;-69
2023/08/01 05:48:40;;;;;;;9.18;3.55;;;15.60;99.90;;;;;;5032327;28;20202;-68
2023/08/01 05:51:05;;;;;;;6.22;3.22;;;15.60;99.90;;;;;;5037292;28;20025;-68
2023/08/01 05:53:31;;;;;;;6.78;2.97;;;15.60;99.90;;;;;;5035485;28;20096;-68
2023/08/01 05:55:57;;;;;;;6.10;3.40;;;15.70;99.90;;;;;;5041217;28;20032;-68
2023/08/01 05:58:23;;;;;;;7.18;3.20;;;15.70;99.90;;;;;;5033916;28;20039;-67
2023/08/01 06:00:49;;;;;;;6.93;2.95;;;15.70;99.90;;;;;;5040033;28;20709;-69
2023/08/01 06:03:15;;;;;;;6.63;2.85;;;15.60;99.90;;;;;;5037686;28;20083;-69
2023/08/01 06:05:41;;;;;;;4.45;2.50;;;15.60;99.90;;;;;;5035266;28;20049;-67
2023/08/01 06:08:08;;;;;;;5.07;2.53;;;15.50;99.90;;;;;;5037119;28;20388;-66
2023/08/01 06:10:34;;;;;;;4.22;2.33;;;15.50;99.90;;;;;;5036158;28;20029;-64
2023/08/01 06:13:00;;;;;;;6.28;2.40;;;15.40;99.90;;;;;;5034161;28;20116;-67
2023/08/01 06:15:25;;;;;;;7.75;2.78;;;15.40;99.90;;;;;;5033996;28;20079;-65
2023/08/01 06:17:51;;;;;;;5.03;2.70;;;15.40;99.90;;;;;;5042902;28;20124;-66
2023/08/01 06:20:17;;;;;;;6.40;2.80;;;15.40;99.90;;;;;;5036425;28;20540;-64
2023/08/01 06:22:42;;;;;;;8.68;3.00;;;15.40;99.90;;;;;;5039921;28;20048;-67
2023/08/01 06:25:08;;;;;;;10.80;3.97;;;15.40;99.90;;;;;;5038491;28;20041;-66
2023/08/01 06:27:34;;;;;;;6.22;3.67;;;15.50;99.90;;;;;;5030793;28;20128;-66
2023/08/01 06:30:00;;;;;;;6.40;3.67;;;15.60;99.90;;;;;;5029840;28;20487;-67
2023/08/01 06:32:26;;;;;;;9.25;4.30;;;15.70;99.90;;;;;;5035781;28;20510;-67
2023/08/01 06:34:51;;;;;;;9.10;4.65;;;15.80;99.90;;;;;;5043948;28;20474;-67
2023/08/01 06:37:17;;;;;;;7.80;4.47;;;16.00;99.90;;;;;;5038655;28;20399;-66
2023/08/01 06:39:43;;;;;;;8.57;5.07;;;16.10;99.90;;;;;;5029661;28;20048;-67
2023/08/01 06:42:08;;;;;;;11.25;4.38;;;16.10;99.90;;;;;;5039099;28;20041;-66
2023/08/01 06:44:34;;;;;;;6.82;3.90;;;16.20;99.90;;;;;;5034768;28;20131;-66
2023/08/01 06:47:00;;;;;;;5.70;3.25;;;16.30;99.90;;;;;;5035272;28;20458;-67
2023/08/01 06:49:25;;;;;;;5.63;3.00;;;16.30;99.90;;;;;;5041463;28;20504;-66
2023/08/01 06:51:51;;;;;;;4.97;2.78;;;16.30;99.90;;;;;;5040785;28;20095;-66
2023/08/01 06:54:16;;;;;;;4.80;2.83;;;16.30;99.90;;;;;;5028939;28;20041;-68
2023/08/01 06:56:47;;;;;;;6.40;3.00;;;16.30;99.90;;;;;;5039436;28;20040;-65
2023/08/01 06:59:16;;;;;;;6.47;2.97;;;16.30;99.90;;;;;;5047074;28;20422;-67
2023/08/01 07:01:43;;;;;;;8.07;3.30;;;16.30;99.90;;;;;;5035702;28;20048;-64
2023/08/01 07:04:13;;;;;;;8.70;4.10;;;16.40;99.90;;;;;;5038191;28;20051;-65
2023/08/01 07:06:39;;;;;;;7.85;4.20;;;16.40;99.90;;;;;;5035963;28;20034;-68
2023/08/01 07:09:05;;;;;;;6.82;4.00;;;16.50;99.90;;;;;;5036172;28;20036;-67
2023/08/01 07:11:31;;;;;;;8.30;4.10;;;16.50;99.90;;;;;;5034466;28;20069;-64
2023/08/01 07:13:57;;;;;;;7.13;3.95;;;16.60;99.90;;;;;;5043733;28;20056;-64
2023/08/01 07:16:23;;;;;;;7.22;4.00;;;16.60;99.90;;;;;;5035457;28;20567;-64
2023/08/01 07:18:50;;;;;;;8.82;3.70;;;16.70;99.90;;;;;;5041841;28;20132;-64
2023/08/01 07:21:16;;;;;;;9.45;4.10;;;16.70;99.90;;;;;;5036033;28;20037;-67
2023/08/01 07:23:41;;;;;;;6.80;3.50;;;16.80;99.90;;;;;;5046405;28;20048;-66
2023/08/01 07:26:07;;;;;;;6.05;3.20;;;16.80;99.90;;;;;;5042163;28;20195;-65
2023/08/01 07:28:33;;;;;;;3.78;2.58;;;16.80;99.90;;;;;;5032774;28;20110;-66
2023/08/01 07:31:06;;;;;;;4.82;2.67;;;16.80;99.90;;;;;;5033385;28;20037;-66
2023/08/01 07:33:33;;;;;;;5.07;2.28;;;16.90;99.90;;;;;;5031630;28;20421;-65
2023/08/01 07:35:59;;;;;;;6.65;2.40;;;17.10;99.90;;;;;;5040318;28;20029;-65
2023/08/01 07:38:26;;;;;;;5.20;2.38;;;17.20;99.90;;;;;;5044368;28;20124;-65
2023/08/01 07:40:54;;;;;;;5.55;2.53;;;17.40;99.90;;;;;;5046924;28;20097;-65
2023/08/01 07:43:19;;;;;;;7.18;2.70;;;17.50;99.90;;;;;;5037335;28;20491;-68
2023/08/01 07:45:45;;;;;;;4.55;2.55;;;17.50;99.90;;;;;;5034684;28;20086;-66
2023/08/01 07:48:11;;;;;;;7.38;2.95;;;17.50;99.90;;;;;;5034246;28;20037;-68
2023/08/01 07:50:36;;;;;;;5.10;2.25;;;17.60;99.90;;;;;;5034913;28;20045;-67
2023/08/01 07:53:02;;;;;;;6.50;2.58;;;17.60;99.90;;;;;;5042796;28;20037;-66
2023/08/01 07:55:28;;;;;;;5.10;2.58;;;17.60;99.90;;;;;;5029696;28;20098;-68
2023/08/01 07:57:53;;;;;;;4.90;2.22;;;17.60;99.90;;;;;;5030410;28;20044;-66
2023/08/01 08:00:19;;;;;;;3.83;2.38;;;17.50;99.90;;;;;;5029264;28;20037;-70
2023/08/01 08:02:46;;;;;;;7.18;2.78;;;17.50;99.90;;;;;;5026431;28;20451;-71
2023/08/01 08:05:12;;;;;;;6.68;2.58;;;17.30;99.90;;;;;;5026426;28;20052;-71
2023/08/01 08:07:38;;;;;;;6.78;2.90;;;17.20;99.90;;;;;;5034300;28;20715;-71
2023/08/01 08:10:05;;;;;;;8.05;2.83;;;17.10;99.90;;;;;;5034151;28;20025;-71
2023/08/01 08:12:31;;;;;;;5.93;2.70;;;17.10;99.90;;;;;;5032452;28;20087;-71
2023/08/01 08:14:56;;;;;;;7.55;2.90;;;17.10;99.90;;;;;;5025600;28;20077;-71
2023/08/01 08:17:22;;;;;;;5.63;2.80;;;16.90;99.90;;;;;;5027382;28;20044;-71
2023/08/01 08:19:48;;;;;;;6.65;2.90;;;16.90;99.90;;;;;;5034060;28;20048;-71
2023/08/01 08:22:13;;;;;;;6.18;2.92;;;16.80;99.90;;;;;;5035152;28;20090;-69
2023/08/01 08:24:39;;;;;;;9.80;2.80;;;16.80;99.90;;;;;;5030253;28;20867;-69
2023/08/01 08:27:05;;;;;;;6.10;2.67;;;16.70;99.90;;;;;;5038451;28;20045;-69
2023/08/01 08:29:32;;;;;;;6.72;2.63;;;16.70;99.90;;;;;;5041864;28;20104;-70
2023/08/01 08:31:58;;;;;;;6.53;2.95;;;16.70;99.90;;;;;;5035653;28;20029;-69
2023/08/01 08:34:23;;;;;;;5.80;2.97;;;16.60;99.90;;;;;;5025515;28;20095;-69
2023/08/01 08:36:51;;;;;;;5.90;2.90;;;16.60;99.90;;;;;;5035767;28;20041;-69
2023/08/01 08:39:18;;;;;;;7.18;3.10;;;16.60;99.90;;;;;;5037501;28;23640;-69
2023/08/01 08:41:48;;;;;;;4.97;2.75;;;16.60;99.90;;;;;;5029654;28;20037;-69
2023/08/01 08:44:19;;;;;;;5.07;3.20;;;16.60;99.90;;;;;;5027123;28;20041;-69
2023/08/01 08:46:51;;;;;;;6.70;3.22;;;16.70;99.90;;;;;;5020212;28;20396;-68
2023/08/01 08:49:19;;;;;;;6.18;3.22;;;16.80;99.90;;;;;;5039175;28;20064;-69
2023/08/01 08:51:45;;;;;;;6.45;3.20;;;16.90;99.90;;;;;;5035406;28;20044;-69
2023/08/01 08:54:12;;;;;;;5.82;3.10;;;17.00;99.90;;;;;;5028151;28;20061;-68
2023/08/01 08:56:40;;;;;;;6.45;3.42;;;17.20;99.90;;;;;;5036849;28;21110;-70
2023/08/01 08:59:07;;;;;;;5.15;3.33;;;17.30;99.90;;;;;;5025247;28;20087;-69
2023/08/01 09:01:34;;;;;;;6.32;3.47;;;17.40;99.90;;;;;;5030146;28;20490;-68
2023/08/01 09:03:59;;;;;;;9.35;3.50;;;17.50;99.90;;;;;;5037403;28;20072;-69
2023/08/01 09:06:30;;;;;;;10.23;3.90;;;17.60;99.90;;;;;;5043838;28;20137;-69
2023/08/01 09:09:18;;;;;;;7.47;3.17;;;17.70;99.90;;;;;;5033195;28;20127;-68
2023/08/01 09:11:51;;;;;;;8.88;3.90;;;17.60;99.90;;;;;;5040107;28;20036;-68
2023/08/01 09:14:17;;;;;;;8.13;3.80;;;17.50;99.90;;;;;;5039806;28;20044;-68
2023/08/01 09:16:43;;;;;;;9.18;3.35;;;17.30;99.90;;;;;;5046493;28;20038;-68
2023/08/01 09:19:12;;;;;;;7.30;3.60;;;17.10;99.90;;;;;;5043335;28;20120;-68
2023/08/01 09:21:39;;;;;;;9.85;4.13;;;17.00;99.90;;;;;;5038681;28;20057;-68
2023/08/01 09:24:16;;;;;;;8.73;3.47;;;16.70;99.90;;;;;;5036646;28;20055;-69
2023/08/01 09:26:42;;;;;;;9.45;3.80;;;16.50;99.90;;;;;;5034960;28;20060;-68
2023/08/01 09:29:08;;;;;;;11.93;4.03;;;16.30;99.90;;;;;;5035260;28;20048;-68
2023/08/01 09:31:35;;;;;;;12.63;3.83;;;16.20;99.90;;;;;;5036500;28;20036;-68
2023/08/01 09:34:06;;;;;;;10.45;3.90;;;16.10;99.90;;;;;;5033621;28;20037;-68
2023/08/01 09:36:32;;;;;;;10.47;4.00;;;16.00;99.90;;;;;;5043268;28;20125;-68
2023/08/01 09:39:02;;;;;;;8.68;3.85;;;15.90;99.90;;;;;;5031720;28;20037;-67
2023/08/01 09:41:31;;;;;;;7.68;3.50;;;16.00;99.90;;;;;;5037905;28;20040;-67
2023/08/01 09:43:57;;;;;;;9.02;3.63;;;16.00;99.90;;;;;;5038294;28;20064;-67
2023/08/01 09:46:24;;;;;;;8.32;3.45;;;15.90;99.90;;;;;;5040509;28;20048;-67
2023/08/01 09:48:49;;;;;;;9.25;3.75;;;15.90;99.90;;;;;;5023999;28;20031;-66
2023/08/01 09:51:17;;;;;;;13.18;3.83;;;15.80;99.90;;;;;;5031797;28;20079;-67
2023/08/01 09:53:54;;;;;;;11.65;4.20;;;15.80;99.90;;;;;;5044080;28;20045;-67
2023/08/01 09:56:25;;;;;;;8.52;4.40;;;15.80;99.90;;;;;;5030062;28;20487;-69
2023/08/01 09:58:52;;;;;;;10.30;4.30;;;15.80;99.90;;;;;;5033931;28;20045;-69
2023/08/01 10:01:20;;;;;;;11.23;4.40;;;15.90;99.90;;;;;;5044419;28;20279;-67
2023/08/01 10:03:47;;;;;;;7.20;4.45;;;16.00;99.90;;;;;;5030521;28;20044;-67
2023/08/01 10:06:24;;;;;;;11.57;4.88;;;16.10;99.90;;;;;;5039071;28;20450;-69
2023/08/01 10:08:51;;;;;;;9.95;4.80;;;16.10;99.90;;;;;;5035688;28;20037;-69
2023/08/01 10:11:21;;;;;;;11.55;4.72;;;16.20;99.90;;;;;;5044490;28;20303;-69
2023/08/01 10:13:47;;;;;;;11.48;4.80;;;16.30;99.90;;;;;;5036938;28;20076;-68
2023/08/01 10:16:14;;;;;;;9.27;4.60;;;16.40;99.90;;;;;;5033940;28;20044;-68
2023/08/01 10:18:40;;;;;;;13.05;4.63;;;16.50;99.90;;;;;;5034506;28;20118;-68
2023/08/01 10:21:09;;;;;;;10.93;4.50;;;16.50;99.90;;;;;;5031313;28;20420;-70
2023/08/01 10:23:35;;;;;;;13.68;4.68;;;16.50;99.90;;;;;;5038897;28;20122;-68
2023/08/01 10:26:04;;;;;;;9.57;5.05;;;16.50;99.90;;;;;;5029027;28;20037;-68
2023/08/01 10:28:35;;;;;;;9.05;4.88;;;16.60;99.90;;;;;;5023427;28;20410;-69
2023/08/01 10:31:11;;;;;;;12.30;4.63;;;16.70;99.90;;;;;;5024305;28;20037;-69
2023/08/01 10:33:43;;;;;;;7.38;3.90;;;16.80;99.90;;;;;;5033841;28;20507;-68
2023/08/01 10:36:12;;;;;;;;;;;16.90;99.90;;;;;;5044223;28;20045;-68
2023/08/01 10:38:45;;;;;;;7.97;3.20;;;16.80;99.90;;;;;;5027697;28;20012;-69
2023/08/01 10:41:26;;;;;;;6.03;2.97;;;16.70;99.90;;;;;;5022642;28;20160;-69
2023/08/01 10:44:03;;;;;;;5.90;2.95;;;16.80;99.90;;;;;;5038129;28;20555;-68
2023/08/01 10:46:29;;;;;;;6.45;2.75;;;16.80;99.90;;;;;;5043402;28;20036;-69
2023/08/01 10:48:54;;;;;;;5.68;3.03;;;16.80;99.90;;;;;;5042786;28;20033;-69
2023/08/01 10:51:20;;;;;;;6.15;3.30;;;16.90;99.90;;;;;;5030443;28;20543;-69
2023/08/01 10:53:46;;;;;;;5.45;2.88;;;17.10;99.90;;;;;;5028979;28;20091;-68
2023/08/01 10:56:19;;;;;;;8.13;3.25;;;17.50;99.90;;;;;;5036575;28;20119;-69
2023/08/01 10:58:46;;;;;;;7.10;2.85;;;17.90;99.90;;;;;;5041523;28;20160;-69
2023/08/01 11:01:12;;;;;;;5.97;2.30;;;18.00;99.90;;;;;;5042854;28;20579;-68
2023/08/01 11:03:39;;;;;;;6.03;2.50;;;18.00;99.90;;;;;;5039903;28;20045;-70
2023/08/01 11:06:05;;;;;;;5.45;2.50;;;18.30;99.90;;;;;;5033492;28;20210;-69
2023/08/01 11:08:39;;;;;;;6.05;2.70;;;18.20;99.90;;;;;;5042420;28;20130;-69
2023/08/01 11:11:06;;;;;;;9.43;2.90;;;17.90;99.90;;;;;;5034661;28;20052;-69
2023/08/01 11:13:34;;;;;;;9.90;3.00;;;17.70;99.90;;;;;;5034448;28;20392;-69
2023/08/01 11:16:02;;;;;;;8.23;3.40;;;17.40;99.90;;;;;;5037476;28;20045;-67
2023/08/01 11:18:28;;;;;;;9.32;3.30;;;17.10;99.90;;;;;;5034000;28;20063;-69
2023/08/01 11:20:53;;;;;;;6.32;3.22;;;16.90;99.90;;;;;;5027987;28;20486;-69
2023/08/01 11:23:27;;;;;;;6.93;3.00;;;16.90;99.90;;;;;;5033954;28;20120;-69
2023/08/01 11:25:54;;;;;;;7.55;3.13;;;16.90;99.90;;;;;;5042342;28;20088;-69
2023/08/01 11:28:21;;;;;;;6.03;2.90;;;16.90;99.90;;;;;;5029728;28;20048;-69
2023/08/01 11:30:47;;;;;;;5.47;2.60;;;16.80;99.90;;;;;;5023554;28;20052;-69
2023/08/01 11:33:15;;;;;;;5.75;2.75;;;16.90;99.90;;;;;;5035316;28;20052;-69
2023/08/01 11:35:41;;;;;;;6.32;2.60;;;16.90;99.90;;;;;;5034479;28;20048;-67
2023/08/01 11:38:07;;;;;;;5.70;2.40;;;17.10;99.90;;;;;;5037464;28;20033;-68
2023/08/01 11:40:33;;;;;;;5.35;2.45;;;17.40;99.90;;;;;;5036930;28;20064;-69
2023/08/01 11:42:59;;;;;;;4.40;2.25;;;17.60;99.90;;;;;;5038724;28;20116;-68
2023/08/01 11:45:25;;;;;;;7.03;2.83;;;17.90;99.90;;;;;;5042050;28;20364;-67
2023/08/01 11:47:54;;;;;;;4.88;2.30;;;18.10;99.90;;;;;;5036920;28;20037;-70
2023/08/01 11:50:23;;;;;;;9.25;2.70;;;18.30;99.90;;;;;;5031862;28;20036;-69
2023/08/01 11:52:49;;;;;;;5.90;2.45;;;18.30;99.90;;;;;;5037091;28;20517;-69
2023/08/01 11:55:25;;;;;;;4.70;2.15;;;18.20;99.90;;;;;;5042236;28;20130;-68
2023/08/01 11:57:52;;;;;;;5.57;2.67;;;18.20;99.90;;;;;;5034653;28;20075;-68
2023/08/01 12:00:27;;;;;;;6.38;2.70;;;18.60;99.90;;;;;;5038171;28;20060;-70
2023/08/01 12:03:07;;;;;;;6.72;2.30;;;18.70;99.90;;;;;;5035904;28;20052;-69
2023/08/01 12:05:33;;;;;;;7.07;2.60;;;18.90;99.90;;;;;;5037115;28;20348;-69
2023/08/01 12:08:12;;;;;;;6.78;2.35;;;19.00;99.90;;;;;;5045442;28;20037;-69
2023/08/01 12:10:40;;;;;;;7.13;2.65;;;18.80;99.90;;;;;;5036119;28;20045;-69
2023/08/01 12:13:05;;;;;;;8.82;2.95;;;18.80;99.90;;;;;;5044594;28;20479;-69
2023/08/01 12:15:31;;;;;;;8.57;2.72;;;18.60;99.90;;;;;;5034162;28;20048;-70
2023/08/01 12:17:57;;;;;;;8.95;2.60;;;18.50;99.90;;;;;;5025413;28;20064;-69
2023/08/01 12:20:22;;;;;;;7.82;2.78;;;18.40;99.90;;;;;;5035654;28;20421;-69
2023/08/01 12:22:48;;;;;;;9.70;2.72;;;18.20;99.90;;;;;;5031501;28;20036;-70
2023/08/01 12:25:14;;;;;;;9.90;3.50;;;18.00;99.90;;;;;;5039580;28;20402;-69
2023/08/01 12:27:39;;;;;;;6.40;2.72;;;17.90;99.90;;;;;;5036161;28;20068;-69
2023/08/01 12:30:05;;;;;;;11.43;3.03;;;17.80;99.90;;;;;;5044134;28;20072;-69
2023/08/01 12:32:31;;;;;;;8.55;3.08;;;17.70;99.90;;;;;;5041462;28;20045;-69
2023/08/01 12:34:57;;;;;;;8.85;3.33;;;17.60;99.90;;;;;;5029816;28;20040;-70
2023/08/01 12:37:22;;;;;;;7.45;2.95;;;17.70;99.90;;;;;;5033843;28;20063;-70
2023/08/01 12:39:48;;;;;;;7.60;3.55;;;18.00;99.90;;;;;;5034172;28;20036;-69